Time,TemperatureF,DewpointF,PressureIn,WindDirection,WindDirectionDegrees,WindSpeedMPH,WindSpeedGustMPH,Humidity,HourlyPrecipIn,Conditions,Clouds,dailyrainin,SolarRadiationWatts/m^2,SoftwareType,DateUTC
2014-02-11 00:22:00,11.0,6.0,-100.00,North,356,4.0,12.0,79,0.00,,,0.08,0.000000,,2014-02-11 07:22:00,
2014-02-11 00:32:00,11.0,6.0,-100.00,North,356,4.0,12.0,79,0.00,,,0.08,0.000000,,2014-02-11 07:32:00,
2014-02-11 00:42:00,11.0,6.0,-100.00,North,356,4.0,12.0,79,0.00,,,0.08,0.000000,,2014-02-11 07:42:00,
2014-02-11 00:52:00,11.0,6.0,-100.00,North,356,4.0,12.0,79,0.00,,,0.08,0.000000,,2014-02-11 07:52:00,
2014-02-11 01:22:00,9.0,6.0,-100.00,North,349,2.0,5.0,87,0.00,,,0.08,0.000000,,2014-02-11 08:22:00,
2014-02-11 01:32:00,9.0,6.0,-100.00,North,349,2.0,5.0,87,0.00,,,0.08,0.000000,,2014-02-11 08:32:00,
2014-02-11 01:42:00,9.0,6.0,-100.00,North,349,2.0,5.0,87,0.00,,,0.08,0.000000,,2014-02-11 08:42:00,
2014-02-11 01:53:00,9.0,6.0,-100.00,North,349,2.0,5.0,87,0.00,,,0.08,0.000000,,2014-02-11 08:53:00,
2014-02-11 02:22:00,7.0,4.0,-100.00,SW,227,1.0,8.0,89,0.00,,,0.08,0.000000,,2014-02-11 09:22:00,
2014-02-11 02:33:00,7.0,4.0,-100.00,SW,227,1.0,8.0,89,0.00,,,0.08,0.000000,,2014-02-11 09:33:00,
2014-02-11 02:43:00,7.0,4.0,-100.00,SW,227,1.0,8.0,89,0.00,,,0.08,0.000000,,2014-02-11 09:43:00,
2014-02-11 02:53:00,7.0,4.0,-100.00,SW,227,1.0,8.0,89,0.00,,,0.08,0.000000,,2014-02-11 09:53:00,
2014-02-11 03:23:00,6.0,3.0,-100.00,SE,146,2.0,4.0,88,0.00,,,0.08,0.000000,,2014-02-11 10:23:00,
2014-02-11 03:33:00,6.0,3.0,-100.00,SE,146,2.0,4.0,88,0.00,,,0.08,0.000000,,2014-02-11 10:33:00,
2014-02-11 03:43:00,6.0,3.0,-100.00,SE,146,2.0,4.0,88,0.00,,,0.08,0.000000,,2014-02-11 10:43:00,
2014-02-11 03:53:00,6.0,3.0,-100.00,SE,146,2.0,4.0,88,0.00,,,0.08,0.000000,,2014-02-11 10:53:00,
2014-02-11 04:22:00,4.0,1.0,-100.00,WSW,242,2.0,3.0,86,0.00,,,-99.99,0.000000,,2014-02-11 11:22:00,
2014-02-11 04:34:00,4.0,1.0,-100.00,WSW,242,2.0,3.0,86,0.00,,,-99.99,0.000000,,2014-02-11 11:34:00,
2014-02-11 04:42:00,4.0,1.0,-100.00,WSW,242,2.0,3.0,86,0.00,,,-99.99,0.000000,,2014-02-11 11:42:00,
2014-02-11 04:52:00,4.0,1.0,-100.00,WSW,242,2.0,3.0,86,0.00,,,-99.99,0.000000,,2014-02-11 11:52:00,
2014-02-11 05:22:00,3.0,0.0,-100.00,SSE,159,2.0,3.0,86,0.00,,,-99.99,0.000000,,2014-02-11 12:22:00,
2014-02-11 05:32:00,3.0,0.0,-100.00,SSE,159,2.0,3.0,86,0.00,,,-99.99,0.000000,,2014-02-11 12:32:00,
2014-02-11 05:42:00,3.0,0.0,-100.00,SSE,159,2.0,3.0,86,0.00,,,-99.99,0.000000,,2014-02-11 12:42:00,
2014-02-11 05:52:00,3.0,0.0,-100.00,SSE,159,2.0,3.0,86,0.00,,,-99.99,0.000000,,2014-02-11 12:52:00,
2014-02-11 06:22:00,2.0,-2.0,-100.00,WSW,238,1.0,2.0,84,0.00,,,-99.99,0.000000,,2014-02-11 13:22:00,
2014-02-11 06:33:00,2.0,-2.0,-100.00,WSW,238,1.0,2.0,84,0.00,,,-99.99,0.000000,,2014-02-11 13:33:00,
2014-02-11 06:42:00,2.0,-2.0,-100.00,WSW,238,1.0,2.0,84,0.00,,,-99.99,0.000000,,2014-02-11 13:42:00,
2014-02-11 06:52:00,2.0,-2.0,-100.00,WSW,238,1.0,2.0,84,0.00,,,-99.99,0.000000,,2014-02-11 13:52:00,
2014-02-11 07:22:00,2.0,-1.0,-100.00,NNE,12,1.0,3.0,85,0.00,,,-99.99,0.000000,,2014-02-11 14:22:00,
2014-02-11 07:32:00,2.0,-1.0,-100.00,NNE,12,1.0,3.0,85,0.00,,,-99.99,0.000000,,2014-02-11 14:32:00,
2014-02-11 07:42:00,2.0,-1.0,-100.00,NNE,12,1.0,3.0,85,0.00,,,-99.99,0.000000,,2014-02-11 14:42:00,
2014-02-11 07:52:00,2.0,-1.0,-100.00,NNE,12,1.0,3.0,85,0.00,,,-99.99,0.000000,,2014-02-11 14:52:00,
2014-02-11 08:22:00,8.0,4.0,-100.00,North,-999,0.0,2.0,83,0.00,,,0.08,22.000000,,2014-02-11 15:22:00,
2014-02-11 08:33:00,8.0,4.0,-100.00,North,-999,0.0,2.0,83,0.00,,,0.08,22.000000,,2014-02-11 15:33:00,
2014-02-11 08:43:00,8.0,4.0,-100.00,North,-999,0.0,2.0,83,0.00,,,0.08,22.000000,,2014-02-11 15:43:00,
2014-02-11 08:53:00,8.0,4.0,-100.00,North,-999,0.0,2.0,83,0.00,,,0.08,22.000000,,2014-02-11 15:53:00,
2014-02-11 09:23:00,14.0,6.0,-100.00,SE,131,3.0,4.0,70,0.00,,,0.08,105.000000,,2014-02-11 16:23:00,
2014-02-11 09:33:00,14.0,6.0,-100.00,SE,131,3.0,4.0,70,0.00,,,0.08,105.000000,,2014-02-11 16:33:00,
2014-02-11 09:43:00,14.0,6.0,-100.00,SE,131,3.0,4.0,70,0.00,,,0.08,105.000000,,2014-02-11 16:43:00,
2014-02-11 09:53:00,14.0,6.0,-100.00,SE,131,3.0,4.0,70,0.00,,,0.08,105.000000,,2014-02-11 16:53:00,
2014-02-11 12:22:00,27.0,8.0,-100.00,SE,137,5.0,8.0,44,0.00,,,0.06,507.000000,,2014-02-11 19:22:00,
2014-02-11 12:32:00,27.0,8.0,-100.00,SE,137,5.0,8.0,44,0.00,,,0.06,507.000000,,2014-02-11 19:32:00,
2014-02-11 12:42:00,27.0,8.0,-100.00,SE,137,5.0,8.0,44,0.00,,,0.06,507.000000,,2014-02-11 19:42:00,
2014-02-11 12:53:00,27.0,8.0,-100.00,SE,137,5.0,8.0,44,0.00,,,0.06,507.000000,,2014-02-11 19:53:00,
2014-02-11 13:22:00,31.0,8.0,-100.00,SE,129,4.0,6.0,38,0.01,,,0.04,570.000000,,2014-02-11 20:22:00,
2014-02-11 13:32:00,31.0,8.0,-100.00,SE,129,4.0,6.0,38,0.01,,,0.04,570.000000,,2014-02-11 20:32:00,
2014-02-11 13:42:00,31.0,8.0,-100.00,SE,129,4.0,6.0,38,0.01,,,0.04,570.000000,,2014-02-11 20:42:00,
2014-02-11 13:52:00,31.0,8.0,-100.00,SE,129,4.0,6.0,38,0.01,,,0.04,570.000000,,2014-02-11 20:52:00,
2014-02-11 15:23:00,28.0,5.0,-100.00,WSW,255,8.0,16.0,37,-99.99,,,0.12,521.000000,,2014-02-11 22:23:00,
2014-02-11 15:33:00,28.0,5.0,-100.00,WSW,255,8.0,16.0,37,-99.99,,,0.12,521.000000,,2014-02-11 22:33:00,
2014-02-11 15:42:00,28.0,5.0,-100.00,WSW,255,8.0,16.0,37,-99.99,,,0.12,521.000000,,2014-02-11 22:42:00,
2014-02-11 15:52:00,28.0,5.0,-100.00,WSW,255,8.0,16.0,37,-99.99,,,0.12,521.000000,,2014-02-11 22:52:00,
2014-02-11 16:23:00,26.0,4.0,-100.00,West,275,9.0,22.0,38,0.01,,,0.13,384.000000,,2014-02-11 23:23:00,
2014-02-11 16:33:00,26.0,4.0,-100.00,West,275,9.0,22.0,38,0.01,,,0.13,384.000000,,2014-02-11 23:33:00,
2014-02-11 16:42:00,26.0,4.0,-100.00,West,275,9.0,22.0,38,0.01,,,0.13,384.000000,,2014-02-11 23:42:00,
2014-02-11 16:53:00,26.0,4.0,-100.00,West,275,9.0,22.0,38,0.01,,,0.13,384.000000,,2014-02-11 23:53:00,
2014-02-11 17:22:00,23.0,5.0,-100.00,West,280,11.0,23.0,46,0.00,,,0.13,211.000000,,2014-02-12 00:22:00,
2014-02-11 17:32:00,23.0,5.0,-100.00,West,280,11.0,23.0,46,0.00,,,0.13,211.000000,,2014-02-12 00:32:00,
2014-02-11 17:42:00,23.0,5.0,-100.00,West,280,11.0,23.0,46,0.00,,,0.13,211.000000,,2014-02-12 00:42:00,
2014-02-11 17:52:00,23.0,5.0,-100.00,West,280,11.0,23.0,46,0.00,,,0.13,211.000000,,2014-02-12 00:52:00,
2014-02-11 18:22:00,16.0,3.0,-100.00,NW,309,7.0,18.0,56,0.00,,,-99.99,29.000000,,2014-02-12 01:22:00,
2014-02-11 18:32:00,16.0,3.0,-100.00,NW,309,7.0,18.0,56,0.00,,,-99.99,29.000000,,2014-02-12 01:32:00,
2014-02-11 18:42:00,16.0,3.0,-100.00,NW,309,7.0,18.0,56,0.00,,,-99.99,29.000000,,2014-02-12 01:42:00,
2014-02-11 18:52:00,16.0,3.0,-100.00,NW,309,7.0,18.0,56,0.00,,,-99.99,29.000000,,2014-02-12 01:52:00,
2014-02-11 19:22:00,15.0,4.0,-100.00,NW,315,8.0,14.0,60,0.00,,,0.13,0.000000,,2014-02-12 02:22:00,
2014-02-11 19:32:00,15.0,4.0,-100.00,NW,315,8.0,14.0,60,0.00,,,0.13,0.000000,,2014-02-12 02:32:00,
2014-02-11 19:42:00,15.0,4.0,-100.00,NW,315,8.0,14.0,60,0.00,,,0.13,0.000000,,2014-02-12 02:42:00,
2014-02-11 19:52:00,15.0,4.0,-100.00,NW,315,8.0,14.0,60,0.00,,,0.13,0.000000,,2014-02-12 02:52:00,
2014-02-11 20:22:00,14.0,3.0,-100.00,NW,311,7.0,14.0,61,0.00,,,0.13,0.000000,,2014-02-12 03:22:00,
2014-02-11 20:33:00,14.0,3.0,-100.00,NW,311,7.0,14.0,61,0.00,,,0.13,0.000000,,2014-02-12 03:33:00,
2014-02-11 20:43:00,14.0,3.0,-100.00,NW,311,7.0,14.0,61,0.00,,,0.13,0.000000,,2014-02-12 03:43:00,
2014-02-11 20:53:00,14.0,3.0,-100.00,NW,311,7.0,14.0,61,0.00,,,0.13,0.000000,,2014-02-12 03:53:00,
2014-02-11 21:23:00,13.0,3.0,-100.00,WNW,293,5.0,12.0,65,0.00,,,0.13,0.000000,,2014-02-12 04:23:00,
2014-02-11 21:33:00,13.0,3.0,-100.00,WNW,293,5.0,12.0,65,0.00,,,0.13,0.000000,,2014-02-12 04:33:00,
2014-02-11 21:43:00,13.0,3.0,-100.00,WNW,293,5.0,12.0,65,0.00,,,0.13,0.000000,,2014-02-12 04:43:00,
2014-02-11 21:53:00,13.0,3.0,-100.00,WNW,293,5.0,12.0,65,0.00,,,0.13,0.000000,,2014-02-12 04:53:00,
2014-02-11 22:23:00,13.0,5.0,-100.00,WNW,284,7.0,14.0,70,0.00,,,0.13,0.000000,,2014-02-12 05:23:00,
2014-02-11 22:33:00,13.0,5.0,-100.00,WNW,284,7.0,14.0,70,0.00,,,0.13,0.000000,,2014-02-12 05:33:00,
2014-02-11 22:43:00,13.0,5.0,-100.00,WNW,284,7.0,14.0,70,0.00,,,0.13,0.000000,,2014-02-12 05:43:00,
2014-02-11 22:52:00,13.0,5.0,-100.00,WNW,284,7.0,14.0,70,0.00,,,0.13,0.000000,,2014-02-12 05:52:00,
2014-02-11 23:22:00,13.0,5.0,-100.00,West,280,6.0,13.0,70,0.00,,,0.13,0.000000,,2014-02-12 06:22:00,
2014-02-11 23:32:00,13.0,5.0,-100.00,West,280,6.0,13.0,70,0.00,,,0.13,0.000000,,2014-02-12 06:32:00,
2014-02-11 23:42:00,13.0,5.0,-100.00,West,280,6.0,13.0,70,0.00,,,0.13,0.000000,,2014-02-12 06:42:00,
2014-02-11 23:52:00,13.0,5.0,-100.00,West,280,6.0,13.0,70,0.00,,,0.13,0.000000,,2014-02-12 06:52:00,